sensor_id;sensor_type;location;lat;lon;timestamp;P1;durP1;ratioP1;P2;durP2;ratioP2
42972;SDS011;28610;51.214;6.962;2022-09-01T00:01:44;4.28;;;2.53;;
42972;SDS011;28610;51.214;6.962;2022-09-01T00:04:33;9.60;;;2.60;;
42972;SDS011;28610;51.214;6.962;2022-09-01T00:07:21;6.72;;;2.85;;
42972;SDS011;28610;51.214;6.962;2022-09-01T00:10:07;5.50;;;2.70;;
42972;SDS011;28610;51.214;6.962;2022-09-01T00:12:53;5.68;;;3.00;;
42972;SDS011;28610;51.214;6.962;2022-09-01T00:15:39;4.40;;;2.60;;
42972;SDS011;28610;51.214;6.962;2022-09-01T00:18:25;8.25;;;3.00;;
42972;SDS011;28610;51.214;6.962;2022-09-01T00:21:12;4.03;;;2.55;;
42972;SDS011;28610;51.214;6.962;2022-09-01T00:23:58;5.93;;;2.97;;
42972;SDS011;28610;51.214;6.962;2022-09-01T00:26:44;7.15;;;2.67;;
42972;SDS011;28610;51.214;6.962;2022-09-01T00:29:29;6.65;;;2.53;;
42972;SDS011;28610;51.214;6.962;2022-09-01T00:32:15;4.60;;;2.72;;
42972;SDS011;28610;51.214;6.962;2022-09-01T00:35:00;4.38;;;2.65;;
42972;SDS011;28610;51.214;6.962;2022-09-01T00:37:47;5.55;;;2.75;;
42972;SDS011;28610;51.214;6.962;2022-09-01T00:40:33;4.43;;;2.90;;
42972;SDS011;28610;51.214;6.962;2022-09-01T00:43:20;3.63;;;2.45;;
42972;SDS011;28610;51.214;6.962;2022-09-01T00:46:08;4.65;;;2.70;;
42972;SDS011;28610;51.214;6.962;2022-09-01T00:48:56;5.65;;;2.70;;
42972;SDS011;28610;51.214;6.962;2022-09-01T00:51:46;4.88;;;2.67;;
42972;SDS011;28610;51.214;6.962;2022-09-01T00:54:36;5.28;;;3.03;;
42972;SDS011;28610;51.214;6.962;2022-09-01T00:57:24;5.15;;;2.67;;
42972;SDS011;28610;51.214;6.962;2022-09-01T01:00:12;3.55;;;2.67;;
42972;SDS011;28610;51.214;6.962;2022-09-01T01:02:59;6.20;;;2.70;;
42972;SDS011;28610;51.214;6.962;2022-09-01T01:05:45;4.78;;;2.92;;
42972;SDS011;28610;51.214;6.962;2022-09-01T01:08:37;4.63;;;2.55;;
42972;SDS011;28610;51.214;6.962;2022-09-01T01:11:30;5.53;;;2.50;;
42972;SDS011;28610;51.214;6.962;2022-09-01T01:14:16;4.35;;;2.67;;
42972;SDS011;28610;51.214;6.962;2022-09-01T01:17:02;5.05;;;2.58;;
42972;SDS011;28610;51.214;6.962;2022-09-01T01:19:49;5.68;;;2.70;;
42972;SDS011;28610;51.214;6.962;2022-09-01T01:22:56;6.88;;;2.97;;
42972;SDS011;28610;51.214;6.962;2022-09-01T01:25:51;7.65;;;2.40;;
42972;SDS011;28610;51.214;6.962;2022-09-01T01:28:39;7.13;;;2.75;;
42972;SDS011;28610;51.214;6.962;2022-09-01T01:31:26;3.92;;;2.80;;
42972;SDS011;28610;51.214;6.962;2022-09-01T01:34:12;6.65;;;2.70;;
42972;SDS011;28610;51.214;6.962;2022-09-01T01:36:57;8.50;;;3.40;;
42972;SDS011;28610;51.214;6.962;2022-09-01T01:39:44;6.95;;;2.90;;
42972;SDS011;28610;51.214;6.962;2022-09-01T01:42:33;6.05;;;2.83;;
42972;SDS011;28610;51.214;6.962;2022-09-01T01:45:21;4.78;;;3.00;;
42972;SDS011;28610;51.214;6.962;2022-09-01T01:48:08;5.03;;;2.75;;
42972;SDS011;28610;51.214;6.962;2022-09-01T01:50:54;3.63;;;2.55;;
42972;SDS011;28610;51.214;6.962;2022-09-01T01:53:42;5.40;;;2.72;;
42972;SDS011;28610;51.214;6.962;2022-09-01T01:56:27;8.35;;;2.55;;
42972;SDS011;28610;51.214;6.962;2022-09-01T01:59:15;5.15;;;2.40;;
42972;SDS011;28610;51.214;6.962;2022-09-01T02:02:01;5.53;;;2.90;;
42972;SDS011;28610;51.214;6.962;2022-09-01T02:04:50;4.15;;;2.55;;
42972;SDS011;28610;51.214;6.962;2022-09-01T02:07:37;4.65;;;2.67;;
42972;SDS011;28610;51.214;6.962;2022-09-01T02:10:27;3.92;;;2.58;;
42972;SDS011;28610;51.214;6.962;2022-09-01T02:13:15;6.13;;;2.78;;
42972;SDS011;28610;51.214;6.962;2022-09-01T02:16:06;4.65;;;2.70;;
42972;SDS011;28610;51.214;6.962;2022-09-01T02:18:54;4.75;;;2.63;;
42972;SDS011;28610;51.214;6.962;2022-09-01T02:21:40;2.90;;;2.42;;
42972;SDS011;28610;51.214;6.962;2022-09-01T02:24:27;5.28;;;2.95;;
42972;SDS011;28610;51.214;6.962;2022-09-01T02:27:15;6.13;;;2.78;;
42972;SDS011;28610;51.214;6.962;2022-09-01T02:30:08;5.72;;;2.67;;
42972;SDS011;28610;51.214;6.962;2022-09-01T02:32:56;5.95;;;2.55;;
42972;SDS011;28610;51.214;6.962;2022-09-01T02:35:42;3.85;;;2.67;;
42972;SDS011;28610;51.214;6.962;2022-09-01T02:38:27;4.35;;;2.58;;
42972;SDS011;28610;51.214;6.962;2022-09-01T02:41:16;5.80;;;2.80;;
42972;SDS011;28610;51.214;6.962;2022-09-01T02:44:03;6.10;;;3.00;;
42972;SDS011;28610;51.214;6.962;2022-09-01T02:46:54;5.97;;;2.80;;
42972;SDS011;28610;51.214;6.962;2022-09-01T02:49:40;6.68;;;2.60;;
42972;SDS011;28610;51.214;6.962;2022-09-01T02:52:26;3.38;;;2.40;;
42972;SDS011;28610;51.214;6.962;2022-09-01T02:55:18;5.15;;;2.70;;
42972;SDS011;28610;51.214;6.962;2022-09-01T02:58:05;4.93;;;2.85;;
42972;SDS011;28610;51.214;6.962;2022-09-01T03:00:53;5.18;;;2.55;;
42972;SDS011;28610;51.214;6.962;2022-09-01T03:03:40;5.13;;;2.50;;
42972;SDS011;28610;51.214;6.962;2022-09-01T03:06:26;3.75;;;2.70;;
42972;SDS011;28610;51.214;6.962;2022-09-01T03:09:14;5.97;;;2.90;;
42972;SDS011;28610;51.214;6.962;2022-09-01T03:12:02;5.68;;;2.60;;
42972;SDS011;28610;51.214;6.962;2022-09-01T03:14:49;3.90;;;2.63;;
42972;SDS011;28610;51.214;6.962;2022-09-01T03:17:35;6.72;;;2.75;;
42972;SDS011;28610;51.214;6.962;2022-09-01T03:20:20;5.53;;;2.90;;
42972;SDS011;28610;51.214;6.962;2022-09-01T03:23:07;6.43;;;3.03;;
42972;SDS011;28610;51.214;6.962;2022-09-01T03:25:55;5.38;;;2.80;;
42972;SDS011;28610;51.214;6.962;2022-09-01T03:28:41;5.97;;;2.78;;
42972;SDS011;28610;51.214;6.962;2022-09-01T03:31:26;5.20;;;2.83;;
42972;SDS011;28610;51.214;6.962;2022-09-01T03:34:13;4.53;;;2.60;;
42972;SDS011;28610;51.214;6.962;2022-09-01T03:37:04;5.20;;;2.70;;
42972;SDS011;28610;51.214;6.962;2022-09-01T03:39:53;5.78;;;2.83;;
42972;SDS011;28610;51.214;6.962;2022-09-01T03:42:42;5.55;;;2.90;;
42972;SDS011;28610;51.214;6.962;2022-09-01T03:45:27;6.70;;;3.03;;
42972;SDS011;28610;51.214;6.962;2022-09-01T03:48:17;5.53;;;3.00;;
42972;SDS011;28610;51.214;6.962;2022-09-01T03:51:02;4.72;;;2.75;;
42972;SDS011;28610;51.214;6.962;2022-09-01T03:53:49;6.22;;;2.95;;
42972;SDS011;28610;51.214;6.962;2022-09-01T03:56:38;5.25;;;2.65;;
42972;SDS011;28610;51.214;6.962;2022-09-01T03:59:25;7.40;;;2.80;;
42972;SDS011;28610;51.214;6.962;2022-09-01T04:02:12;7.70;;;3.07;;
42972;SDS011;28610;51.214;6.962;2022-09-01T04:04:58;7.88;;;2.70;;
42972;SDS011;28610;51.214;6.962;2022-09-01T04:07:43;6.17;;;3.10;;
42972;SDS011;28610;51.214;6.962;2022-09-01T04:10:29;7.05;;;3.35;;
42972;SDS011;28610;51.214;6.962;2022-09-01T04:13:18;10.97;;;3.27;;
42972;SDS011;28610;51.214;6.962;2022-09-01T04:16:05;6.50;;;2.90;;
42972;SDS011;28610;51.214;6.962;2022-09-01T04:18:52;8.90;;;3.07;;
42972;SDS011;28610;51.214;6.962;2022-09-01T04:21:37;4.27;;;2.60;;
42972;SDS011;28610;51.214;6.962;2022-09-01T04:24:23;6.23;;;3.13;;
42972;SDS011;28610;51.214;6.962;2022-09-01T04:27:11;4.53;;;2.80;;
42972;SDS011;28610;51.214;6.962;2022-09-01T04:29:58;4.40;;;2.72;;
42972;SDS011;28610;51.214;6.962;2022-09-01T04:32:43;6.50;;;3.25;;
42972;SDS011;28610;51.214;6.962;2022-09-01T04:35:29;5.43;;;2.80;;
42972;SDS011;28610;51.214;6.962;2022-09-01T04:38:15;7.65;;;2.83;;
42972;SDS011;28610;51.214;6.962;2022-09-01T04:41:02;8.50;;;3.40;;
42972;SDS011;28610;51.214;6.962;2022-09-01T04:43:49;10.10;;;3.38;;
42972;SDS011;28610;51.214;6.962;2022-09-01T04:46:38;8.23;;;3.17;;
42972;SDS011;28610;51.214;6.962;2022-09-01T04:49:28;9.10;;;3.27;;
42972;SDS011;28610;51.214;6.962;2022-09-01T04:52:16;6.27;;;2.90;;
42972;SDS011;28610;51.214;6.962;2022-09-01T04:55:01;6.20;;;2.97;;
42972;SDS011;28610;51.214;6.962;2022-09-01T04:57:48;11.47;;;2.80;;
42972;SDS011;28610;51.214;6.962;2022-09-01T05:00:33;8.23;;;3.00;;
42972;SDS011;28610;51.214;6.962;2022-09-01T05:03:20;5.23;;;3.23;;
42972;SDS011;28610;51.214;6.962;2022-09-01T05:06:11;7.83;;;3.20;;
42972;SDS011;28610;51.214;6.962;2022-09-01T05:08:58;8.90;;;3.50;;
42972;SDS011;28610;51.214;6.962;2022-09-01T05:11:43;9.43;;;3.57;;
42972;SDS011;28610;51.214;6.962;2022-09-01T05:14:31;8.00;;;3.43;;
42972;SDS011;28610;51.214;6.962;2022-09-01T05:17:16;11.40;;;3.60;;
42972;SDS011;28610;51.214;6.962;2022-09-01T05:20:03;7.67;;;3.40;;
42972;SDS011;28610;51.214;6.962;2022-09-01T05:22:49;7.03;;;3.43;;
42972;SDS011;28610;51.214;6.962;2022-09-01T05:25:38;7.40;;;3.30;;
42972;SDS011;28610;51.214;6.962;2022-09-01T05:28:24;11.70;;;3.20;;
42972;SDS011;28610;51.214;6.962;2022-09-01T05:31:10;7.20;;;3.47;;
42972;SDS011;28610;51.214;6.962;2022-09-01T05:33:55;11.15;;;3.25;;
42972;SDS011;28610;51.214;6.962;2022-09-01T05:36:43;11.37;;;3.00;;
42972;SDS011;28610;51.214;6.962;2022-09-01T05:39:33;9.80;;;3.40;;
42972;SDS011;28610;51.214;6.962;2022-09-01T05:42:20;5.33;;;3.20;;
42972;SDS011;28610;51.214;6.962;2022-09-01T05:45:06;8.97;;;3.30;;
42972;SDS011;28610;51.214;6.962;2022-09-01T05:47:54;6.63;;;3.47;;
42972;SDS011;28610;51.214;6.962;2022-09-01T05:50:40;10.90;;;3.47;;
42972;SDS011;28610;51.214;6.962;2022-09-01T05:53:27;11.80;;;3.67;;
42972;SDS011;28610;51.214;6.962;2022-09-01T05:56:13;8.93;;;3.50;;
42972;SDS011;28610;51.214;6.962;2022-09-01T05:58:59;11.10;;;3.70;;
42972;SDS011;28610;51.214;6.962;2022-09-01T06:01:44;8.27;;;3.30;;
42972;SDS011;28610;51.214;6.962;2022-09-01T06:04:30;9.47;;;3.30;;
42972;SDS011;28610;51.214;6.962;2022-09-01T06:07:16;8.23;;;3.00;;
42972;SDS011;28610;51.214;6.962;2022-09-01T06:10:04;10.67;;;4.03;;
42972;SDS011;28610;51.214;6.962;2022-09-01T06:12:51;9.40;;;3.50;;
42972;SDS011;28610;51.214;6.962;2022-09-01T06:15:36;11.63;;;3.20;;
42972;SDS011;28610;51.214;6.962;2022-09-01T06:18:22;8.67;;;3.00;;
42972;SDS011;28610;51.214;6.962;2022-09-01T06:21:08;13.10;;;3.17;;
42972;SDS011;28610;51.214;6.962;2022-09-01T06:23:55;8.30;;;3.27;;
42972;SDS011;28610;51.214;6.962;2022-09-01T06:26:43;12.90;;;3.47;;
42972;SDS011;28610;51.214;6.962;2022-09-01T06:29:29;8.30;;;3.20;;
42972;SDS011;28610;51.214;6.962;2022-09-01T06:32:14;6.65;;;3.00;;
42972;SDS011;28610;51.214;6.962;2022-09-01T06:35:00;11.05;;;3.28;;
42972;SDS011;28610;51.214;6.962;2022-09-01T06:37:47;8.70;;;3.53;;
42972;SDS011;28610;51.214;6.962;2022-09-01T06:40:34;8.25;;;3.28;;
42972;SDS011;28610;51.214;6.962;2022-09-01T06:43:26;9.10;;;3.28;;
42972;SDS011;28610;51.214;6.962;2022-09-01T06:46:13;7.97;;;3.17;;
42972;SDS011;28610;51.214;6.962;2022-09-01T06:49:00;9.18;;;3.00;;
42972;SDS011;28610;51.214;6.962;2022-09-01T06:51:46;5.40;;;2.83;;
42972;SDS011;28610;51.214;6.962;2022-09-01T06:54:32;7.13;;;3.00;;
42972;SDS011;28610;51.214;6.962;2022-09-01T06:57:18;6.05;;;2.90;;
42972;SDS011;28610;51.214;6.962;2022-09-01T07:00:08;6.80;;;2.70;;
42972;SDS011;28610;51.214;6.962;2022-09-01T07:03:03;8.10;;;2.60;;
42972;SDS011;28610;51.214;6.962;2022-09-01T07:05:51;9.10;;;2.60;;
42972;SDS011;28610;51.214;6.962;2022-09-01T07:08:37;9.45;;;2.83;;
42972;SDS011;28610;51.214;6.962;2022-09-01T07:11:24;7.85;;;2.60;;
42972;SDS011;28610;51.214;6.962;2022-09-01T07:14:11;5.85;;;2.40;;
42972;SDS011;28610;51.214;6.962;2022-09-01T07:17:00;5.85;;;2.50;;
42972;SDS011;28610;51.214;6.962;2022-09-01T07:19:45;6.63;;;2.30;;
42972;SDS011;28610;51.214;6.962;2022-09-01T07:22:30;6.18;;;2.42;;
42972;SDS011;28610;51.214;6.962;2022-09-01T07:25:16;5.38;;;2.03;;
42972;SDS011;28610;51.214;6.962;2022-09-01T07:28:03;4.90;;;2.20;;
42972;SDS011;28610;51.214;6.962;2022-09-01T07:30:49;6.85;;;2.17;;
42972;SDS011;28610;51.214;6.962;2022-09-01T07:33:37;7.97;;;2.22;;
42972;SDS011;28610;51.214;6.962;2022-09-01T07:36:23;4.60;;;2.20;;
42972;SDS011;28610;51.214;6.962;2022-09-01T07:39:09;8.85;;;2.58;;
42972;SDS011;28610;51.214;6.962;2022-09-01T07:41:56;5.60;;;2.20;;
42972;SDS011;28610;51.214;6.962;2022-09-01T07:44:41;6.53;;;2.13;;
42972;SDS011;28610;51.214;6.962;2022-09-01T07:47:27;6.70;;;2.10;;
42972;SDS011;28610;51.214;6.962;2022-09-01T07:50:14;5.93;;;2.17;;
42972;SDS011;28610;51.214;6.962;2022-09-01T07:53:01;6.03;;;2.03;;
42972;SDS011;28610;51.214;6.962;2022-09-01T07:55:47;6.05;;;1.88;;
42972;SDS011;28610;51.214;6.962;2022-09-01T07:58:34;6.43;;;1.70;;
42972;SDS011;28610;51.214;6.962;2022-09-01T08:01:22;5.13;;;1.88;;
42972;SDS011;28610;51.214;6.962;2022-09-01T08:04:08;3.25;;;2.00;;
42972;SDS011;28610;51.214;6.962;2022-09-01T08:06:55;5.97;;;2.00;;
42972;SDS011;28610;51.214;6.962;2022-09-01T08:09:41;9.52;;;2.00;;
42972;SDS011;28610;51.214;6.962;2022-09-01T08:12:26;5.57;;;1.92;;
42972;SDS011;28610;51.214;6.962;2022-09-01T08:15:12;4.97;;;1.73;;
42972;SDS011;28610;51.214;6.962;2022-09-01T08:17:59;6.38;;;1.75;;
42972;SDS011;28610;51.214;6.962;2022-09-01T08:20:44;7.38;;;2.08;;
42972;SDS011;28610;51.214;6.962;2022-09-01T08:23:32;6.43;;;2.20;;
42972;SDS011;28610;51.214;6.962;2022-09-01T08:26:18;7.40;;;1.88;;
42972;SDS011;28610;51.214;6.962;2022-09-01T08:29:06;4.35;;;1.85;;
42972;SDS011;28610;51.214;6.962;2022-09-01T08:31:52;8.80;;;1.90;;
42972;SDS011;28610;51.214;6.962;2022-09-01T08:34:37;4.88;;;1.70;;
42972;SDS011;28610;51.214;6.962;2022-09-01T08:37:22;2.88;;;1.55;;
42972;SDS011;28610;51.214;6.962;2022-09-01T08:40:11;3.05;;;1.73;;
42972;SDS011;28610;51.214;6.962;2022-09-01T08:43:03;2.15;;;1.60;;
42972;SDS011;28610;51.214;6.962;2022-09-01T08:45:56;2.65;;;1.73;;
42972;SDS011;28610;51.214;6.962;2022-09-01T08:48:45;3.92;;;1.42;;
42972;SDS011;28610;51.214;6.962;2022-09-01T08:51:34;5.55;;;1.67;;
42972;SDS011;28610;51.214;6.962;2022-09-01T08:54:23;2.38;;;1.67;;
42972;SDS011;28610;51.214;6.962;2022-09-01T08:57:17;2.38;;;1.60;;
42972;SDS011;28610;51.214;6.962;2022-09-01T09:00:06;2.55;;;1.65;;
42972;SDS011;28610;51.214;6.962;2022-09-01T09:02:56;5.70;;;1.80;;
42972;SDS011;28610;51.214;6.962;2022-09-01T09:05:59;4.15;;;1.50;;
42972;SDS011;28610;51.214;6.962;2022-09-01T09:08:52;4.05;;;1.50;;
42972;SDS011;28610;51.214;6.962;2022-09-01T09:15:00;3.42;;;1.60;;
42972;SDS011;28610;51.214;6.962;2022-09-01T09:18:05;3.63;;;1.60;;
42972;SDS011;28610;51.214;6.962;2022-09-01T09:20:57;3.78;;;1.50;;
42972;SDS011;28610;51.214;6.962;2022-09-01T09:23:53;6.20;;;1.88;;
42972;SDS011;28610;51.214;6.962;2022-09-01T09:26:46;4.78;;;1.60;;
42972;SDS011;28610;51.214;6.962;2022-09-01T09:29:32;3.42;;;1.98;;
42972;SDS011;28610;51.214;6.962;2022-09-01T09:32:19;1.90;;;1.70;;
42972;SDS011;28610;51.214;6.962;2022-09-01T09:35:15;2.42;;;1.50;;
42972;SDS011;28610;51.214;6.962;2022-09-01T09:38:19;2.78;;;1.48;;
42972;SDS011;28610;51.214;6.962;2022-09-01T09:41:14;3.85;;;1.60;;
42972;SDS011;28610;51.214;6.962;2022-09-01T09:44:03;3.85;;;1.80;;
42972;SDS011;28610;51.214;6.962;2022-09-01T09:46:49;3.53;;;1.60;;
42972;SDS011;28610;51.214;6.962;2022-09-01T09:49:36;3.70;;;1.73;;
42972;SDS011;28610;51.214;6.962;2022-09-01T09:52:22;4.80;;;1.92;;
42972;SDS011;28610;51.214;6.962;2022-09-01T09:55:17;1.50;;;1.40;;
42972;SDS011;28610;51.214;6.962;2022-09-01T09:58:09;1.75;;;1.42;;
42972;SDS011;28610;51.214;6.962;2022-09-01T10:00:59;2.95;;;1.50;;
42972;SDS011;28610;51.214;6.962;2022-09-01T10:03:50;4.07;;;1.75;;
42972;SDS011;28610;51.214;6.962;2022-09-01T10:06:39;1.60;;;1.50;;
42972;SDS011;28610;51.214;6.962;2022-09-01T10:09:34;3.17;;;1.50;;
42972;SDS011;28610;51.214;6.962;2022-09-01T10:12:21;2.17;;;1.70;;
42972;SDS011;28610;51.214;6.962;2022-09-01T10:15:08;3.72;;;1.48;;
42972;SDS011;28610;51.214;6.962;2022-09-01T10:17:55;4.40;;;1.50;;
42972;SDS011;28610;51.214;6.962;2022-09-01T10:20:48;3.35;;;1.40;;
42972;SDS011;28610;51.214;6.962;2022-09-01T10:23:39;8.02;;;1.50;;
42972;SDS011;28610;51.214;6.962;2022-09-01T10:26:26;3.67;;;1.63;;
42972;SDS011;28610;51.214;6.962;2022-09-01T10:29:17;2.20;;;1.60;;
42972;SDS011;28610;51.214;6.962;2022-09-01T10:32:10;2.83;;;1.50;;
42972;SDS011;28610;51.214;6.962;2022-09-01T10:34:59;5.03;;;1.50;;
42972;SDS011;28610;51.214;6.962;2022-09-01T10:37:46;1.60;;;1.23;;
42972;SDS011;28610;51.214;6.962;2022-09-01T10:40:35;2.60;;;1.50;;
42972;SDS011;28610;51.214;6.962;2022-09-01T10:43:37;3.92;;;1.90;;
42972;SDS011;28610;51.214;6.962;2022-09-01T10:52:57;1.60;;;1.40;;
42972;SDS011;28610;51.214;6.962;2022-09-01T10:55:57;5.30;;;1.60;;
42972;SDS011;28610;51.214;6.962;2022-09-01T10:58:59;1.75;;;1.45;;
42972;SDS011;28610;51.214;6.962;2022-09-01T11:02:09;1.60;;;1.50;;
42972;SDS011;28610;51.214;6.962;2022-09-01T11:05:15;2.47;;;1.50;;
42972;SDS011;28610;51.214;6.962;2022-09-01T11:11:27;2.78;;;1.40;;
42972;SDS011;28610;51.214;6.962;2022-09-01T11:14:20;3.42;;;1.60;;
42972;SDS011;28610;51.214;6.962;2022-09-01T11:17:10;4.82;;;1.77;;
42972;SDS011;28610;51.214;6.962;2022-09-01T11:19:59;3.08;;;1.52;;
42972;SDS011;28610;51.214;6.962;2022-09-01T11:22:57;3.08;;;1.60;;
42972;SDS011;28610;51.214;6.962;2022-09-01T11:25:45;3.92;;;1.67;;
42972;SDS011;28610;51.214;6.962;2022-09-01T11:28:38;5.88;;;2.92;;
42972;SDS011;28610;51.214;6.962;2022-09-01T11:31:37;3.80;;;1.80;;
42972;SDS011;28610;51.214;6.962;2022-09-01T11:34:25;2.22;;;1.80;;
42972;SDS011;28610;51.214;6.962;2022-09-01T11:37:14;2.05;;;1.60;;
42972;SDS011;28610;51.214;6.962;2022-09-01T11:40:03;4.22;;;1.77;;
42972;SDS011;28610;51.214;6.962;2022-09-01T11:42:50;2.85;;;2.00;;
42972;SDS011;28610;51.214;6.962;2022-09-01T11:45:41;2.78;;;1.88;;
42972;SDS011;28610;51.214;6.962;2022-09-01T11:48:33;4.25;;;1.70;;
42972;SDS011;28610;51.214;6.962;2022-09-01T11:51:19;5.53;;;1.90;;
42972;SDS011;28610;51.214;6.962;2022-09-01T11:54:05;4.22;;;1.75;;
42972;SDS011;28610;51.214;6.962;2022-09-01T11:56:51;3.25;;;1.83;;
42972;SDS011;28610;51.214;6.962;2022-09-01T11:59:36;2.30;;;1.52;;
42972;SDS011;28610;51.214;6.962;2022-09-01T12:02:24;3.03;;;1.90;;
42972;SDS011;28610;51.214;6.962;2022-09-01T12:05:22;2.75;;;1.90;;
42972;SDS011;28610;51.214;6.962;2022-09-01T12:08:11;4.20;;;1.88;;
42972;SDS011;28610;51.214;6.962;2022-09-01T12:11:04;4.88;;;1.80;;
42972;SDS011;28610;51.214;6.962;2022-09-01T12:13:56;4.72;;;1.90;;
42972;SDS011;28610;51.214;6.962;2022-09-01T12:16:43;2.90;;;1.80;;
42972;SDS011;28610;51.214;6.962;2022-09-01T12:19:40;4.10;;;1.70;;
42972;SDS011;28610;51.214;6.962;2022-09-01T12:22:25;4.70;;;2.00;;
42972;SDS011;28610;51.214;6.962;2022-09-01T12:25:16;4.63;;;1.88;;
42972;SDS011;28610;51.214;6.962;2022-09-01T12:28:03;5.20;;;1.92;;
42972;SDS011;28610;51.214;6.962;2022-09-01T12:30:49;2.75;;;1.88;;
42972;SDS011;28610;51.214;6.962;2022-09-01T12:33:36;5.18;;;1.70;;
42972;SDS011;28610;51.214;6.962;2022-09-01T12:36:25;4.60;;;1.70;;
42972;SDS011;28610;51.214;6.962;2022-09-01T12:39:18;2.40;;;2.08;;
42972;SDS011;28610;51.214;6.962;2022-09-01T12:42:07;2.33;;;1.80;;
42972;SDS011;28610;51.214;6.962;2022-09-01T12:44:55;2.90;;;1.73;;
42972;SDS011;28610;51.214;6.962;2022-09-01T12:47:46;3.05;;;1.70;;
42972;SDS011;28610;51.214;6.962;2022-09-01T12:50:40;3.63;;;1.90;;
42972;SDS011;28610;51.214;6.962;2022-09-01T12:53:30;4.55;;;1.90;;
42972;SDS011;28610;51.214;6.962;2022-09-01T12:56:19;3.65;;;2.00;;
42972;SDS011;28610;51.214;6.962;2022-09-01T12:59:11;4.43;;;1.77;;
42972;SDS011;28610;51.214;6.962;2022-09-01T13:05:19;3.10;;;1.90;;
42972;SDS011;28610;51.214;6.962;2022-09-01T13:08:06;6.25;;;1.80;;
42972;SDS011;28610;51.214;6.962;2022-09-01T13:10:55;4.40;;;1.80;;
42972;SDS011;28610;51.214;6.962;2022-09-01T13:13:41;4.85;;;1.90;;
42972;SDS011;28610;51.214;6.962;2022-09-01T13:16:27;2.80;;;1.80;;
42972;SDS011;28610;51.214;6.962;2022-09-01T13:19:13;4.60;;;1.98;;
42972;SDS011;28610;51.214;6.962;2022-09-01T13:21:58;3.85;;;1.85;;
42972;SDS011;28610;51.214;6.962;2022-09-01T13:24:44;4.82;;;2.08;;
42972;SDS011;28610;51.214;6.962;2022-09-01T13:27:30;2.72;;;1.80;;
42972;SDS011;28610;51.214;6.962;2022-09-01T13:30:18;2.63;;;1.92;;
42972;SDS011;28610;51.214;6.962;2022-09-01T13:33:04;3.83;;;1.90;;
42972;SDS011;28610;51.214;6.962;2022-09-01T13:35:50;4.00;;;1.70;;
42972;SDS011;28610;51.214;6.962;2022-09-01T13:38:37;3.20;;;1.88;;
42972;SDS011;28610;51.214;6.962;2022-09-01T13:41:23;4.82;;;2.13;;
42972;SDS011;28610;51.214;6.962;2022-09-01T13:44:09;4.45;;;2.20;;
42972;SDS011;28610;51.214;6.962;2022-09-01T13:46:55;2.53;;;2.00;;
42972;SDS011;28610;51.214;6.962;2022-09-01T13:49:41;2.80;;;2.05;;
42972;SDS011;28610;51.214;6.962;2022-09-01T13:52:26;3.38;;;1.80;;
42972;SDS011;28610;51.214;6.962;2022-09-01T13:55:13;5.70;;;1.80;;
42972;SDS011;28610;51.214;6.962;2022-09-01T13:58:00;3.28;;;1.92;;
42972;SDS011;28610;51.214;6.962;2022-09-01T14:00:47;3.75;;;2.20;;
42972;SDS011;28610;51.214;6.962;2022-09-01T14:03:33;2.70;;;1.90;;
42972;SDS011;28610;51.214;6.962;2022-09-01T14:06:18;3.28;;;2.10;;
42972;SDS011;28610;51.214;6.962;2022-09-01T14:09:04;3.80;;;1.90;;
42972;SDS011;28610;51.214;6.962;2022-09-01T14:11:51;5.20;;;2.10;;
42972;SDS011;28610;51.214;6.962;2022-09-01T14:14:36;3.20;;;2.17;;
42972;SDS011;28610;51.214;6.962;2022-09-01T14:17:23;3.97;;;2.10;;
42972;SDS011;28610;51.214;6.962;2022-09-01T14:20:10;4.30;;;2.00;;
42972;SDS011;28610;51.214;6.962;2022-09-01T14:22:57;2.13;;;1.83;;
42972;SDS011;28610;51.214;6.962;2022-09-01T14:25:43;3.13;;;1.98;;
42972;SDS011;28610;51.214;6.962;2022-09-01T14:28:29;3.58;;;2.17;;
42972;SDS011;28610;51.214;6.962;2022-09-01T14:31:15;2.67;;;2.17;;
42972;SDS011;28610;51.214;6.962;2022-09-01T14:34:03;2.47;;;2.10;;
42972;SDS011;28610;51.214;6.962;2022-09-01T14:36:49;2.60;;;2.03;;
42972;SDS011;28610;51.214;6.962;2022-09-01T14:39:37;5.05;;;2.10;;
42972;SDS011;28610;51.214;6.962;2022-09-01T14:42:22;3.88;;;2.08;;
42972;SDS011;28610;51.214;6.962;2022-09-01T14:45:11;3.97;;;1.90;;
42972;SDS011;28610;51.214;6.962;2022-09-01T14:47:59;5.00;;;2.10;;
42972;SDS011;28610;51.214;6.962;2022-09-01T14:50:46;4.00;;;1.90;;
42972;SDS011;28610;51.214;6.962;2022-09-01T14:53:33;2.65;;;1.75;;
42972;SDS011;28610;51.214;6.962;2022-09-01T14:56:18;3.25;;;1.90;;
42972;SDS011;28610;51.214;6.962;2022-09-01T14:59:04;3.72;;;2.10;;
42972;SDS011;28610;51.214;6.962;2022-09-01T15:01:51;3.15;;;2.20;;
42972;SDS011;28610;51.214;6.962;2022-09-01T15:04:37;3.67;;;2.00;;
42972;SDS011;28610;51.214;6.962;2022-09-01T15:07:23;3.70;;;1.90;;
42972;SDS011;28610;51.214;6.962;2022-09-01T15:10:10;2.92;;;2.00;;
42972;SDS011;28610;51.214;6.962;2022-09-01T15:12:59;3.40;;;2.10;;
42972;SDS011;28610;51.214;6.962;2022-09-01T15:15:45;3.80;;;2.08;;
42972;SDS011;28610;51.214;6.962;2022-09-01T15:18:30;3.45;;;2.10;;
42972;SDS011;28610;51.214;6.962;2022-09-01T15:21:19;3.55;;;2.00;;
42972;SDS011;28610;51.214;6.962;2022-09-01T15:24:07;2.97;;;2.08;;
42972;SDS011;28610;51.214;6.962;2022-09-01T15:26:53;2.63;;;2.15;;
42972;SDS011;28610;51.214;6.962;2022-09-01T15:29:38;3.88;;;2.20;;
42972;SDS011;28610;51.214;6.962;2022-09-01T15:32:28;3.88;;;2.15;;
42972;SDS011;28610;51.214;6.962;2022-09-01T15:35:13;2.72;;;2.10;;
42972;SDS011;28610;51.214;6.962;2022-09-01T15:37:59;5.28;;;2.50;;
42972;SDS011;28610;51.214;6.962;2022-09-01T15:40:47;5.10;;;2.53;;
42972;SDS011;28610;51.214;6.962;2022-09-01T15:43:32;4.13;;;2.20;;
42972;SDS011;28610;51.214;6.962;2022-09-01T15:46:18;4.82;;;2.30;;
42972;SDS011;28610;51.214;6.962;2022-09-01T15:49:04;5.57;;;2.42;;
42972;SDS011;28610;51.214;6.962;2022-09-01T15:51:51;5.70;;;2.13;;
42972;SDS011;28610;51.214;6.962;2022-09-01T15:54:40;4.03;;;2.35;;
42972;SDS011;28610;51.214;6.962;2022-09-01T15:57:27;5.57;;;2.00;;
42972;SDS011;28610;51.214;6.962;2022-09-01T16:00:12;5.40;;;2.20;;
42972;SDS011;28610;51.214;6.962;2022-09-01T16:02:59;4.82;;;2.17;;
42972;SDS011;28610;51.214;6.962;2022-09-01T16:05:44;4.88;;;2.40;;
42972;SDS011;28610;51.214;6.962;2022-09-01T16:08:30;2.88;;;2.03;;
42972;SDS011;28610;51.214;6.962;2022-09-01T16:11:16;5.90;;;2.10;;
42972;SDS011;28610;51.214;6.962;2022-09-01T16:14:02;6.07;;;2.13;;
42972;SDS011;28610;51.214;6.962;2022-09-01T16:16:50;7.13;;;2.17;;
42972;SDS011;28610;51.214;6.962;2022-09-01T16:19:40;4.47;;;2.00;;
42972;SDS011;28610;51.214;6.962;2022-09-01T16:22:35;6.03;;;2.13;;
42972;SDS011;28610;51.214;6.962;2022-09-01T16:25:27;4.57;;;2.00;;
42972;SDS011;28610;51.214;6.962;2022-09-01T16:28:19;3.60;;;2.10;;
42972;SDS011;28610;51.214;6.962;2022-09-01T16:31:11;4.60;;;1.90;;
42972;SDS011;28610;51.214;6.962;2022-09-01T16:33:58;7.30;;;2.08;;
42972;SDS011;28610;51.214;6.962;2022-09-01T16:36:54;5.50;;;2.10;;
42972;SDS011;28610;51.214;6.962;2022-09-01T16:39:48;3.70;;;2.00;;
42972;SDS011;28610;51.214;6.962;2022-09-01T16:42:39;7.78;;;2.00;;
42972;SDS011;28610;51.214;6.962;2022-09-01T16:45:36;7.18;;;2.10;;
42972;SDS011;28610;51.214;6.962;2022-09-01T16:48:32;4.97;;;1.80;;
42972;SDS011;28610;51.214;6.962;2022-09-01T16:51:25;3.40;;;1.83;;
42972;SDS011;28610;51.214;6.962;2022-09-01T16:54:16;5.95;;;2.20;;
42972;SDS011;28610;51.214;6.962;2022-09-01T16:57:09;4.45;;;2.00;;
42972;SDS011;28610;51.214;6.962;2022-09-01T17:00:03;3.92;;;1.95;;
42972;SDS011;28610;51.214;6.962;2022-09-01T17:02:52;3.28;;;2.00;;
42972;SDS011;28610;51.214;6.962;2022-09-01T17:05:54;7.53;;;2.63;;
42972;SDS011;28610;51.214;6.962;2022-09-01T17:08:42;4.55;;;2.17;;
42972;SDS011;28610;51.214;6.962;2022-09-01T17:11:36;3.95;;;2.05;;